sensor_id;sensor_type;location;lat;lon;timestamp;P1;durP1;ratioP1;P2;durP2;ratioP2
46505;SDS011;32220;49.808;9.968;2023-09-07T08:42:00;3.58;;;3.28;;
46505;SDS011;32220;49.808;9.968;2023-09-07T08:44:28;2.85;;;2.65;;
46505;SDS011;32220;49.808;9.968;2023-09-07T08:46:56;3.28;;;2.97;;
46505;SDS011;32220;49.808;9.968;2023-09-07T08:49:25;3.50;;;3.20;;
46505;SDS011;32220;49.808;9.968;2023-09-07T08:51:57;3.20;;;2.90;;
46505;SDS011;32220;49.808;9.968;2023-09-07T08:54:26;2.80;;;2.60;;
46505;SDS011;32220;49.808;9.968;2023-09-07T08:56:53;5.10;;;3.28;;
46505;SDS011;32220;49.808;9.968;2023-09-07T08:59:24;3.22;;;3.03;;
46505;SDS011;32220;49.808;9.968;2023-09-07T09:01:55;2.80;;;2.60;;
46505;SDS011;32220;49.808;9.968;2023-09-07T09:08:00;2.72;;;2.53;;
46505;SDS011;32220;49.808;9.968;2023-09-07T09:10:37;2.72;;;2.53;;
46505;SDS011;32220;49.808;9.968;2023-09-07T09:13:29;3.10;;;2.90;;
46505;SDS011;32220;49.808;9.968;2023-09-07T09:15:59;3.03;;;2.83;;
46505;SDS011;32220;49.808;9.968;2023-09-07T09:18:57;2.90;;;2.70;;
46505;SDS011;32220;49.808;9.968;2023-09-07T09:21:42;3.60;;;3.30;;
46505;SDS011;32220;49.808;9.968;2023-09-07T09:39:59;5.10;;;2.80;;
46505;SDS011;32220;49.808;9.968;2023-09-07T10:17:37;2.70;;;2.50;;
46505;SDS011;32220;49.808;9.968;2023-09-07T10:20:04;3.13;;;2.80;;
46505;SDS011;32220;49.808;9.968;2023-09-07T10:22:33;3.73;;;3.07;;
46505;SDS011;32220;49.808;9.968;2023-09-07T10:25:00;3.17;;;2.97;;
46505;SDS011;32220;49.808;9.968;2023-09-07T10:27:35;3.20;;;2.90;;
46505;SDS011;32220;49.808;9.968;2023-09-07T10:30:09;2.67;;;2.47;;
46505;SDS011;32220;49.808;9.968;2023-09-07T10:32:39;4.27;;;3.10;;
46505;SDS011;32220;49.808;9.968;2023-09-07T10:35:12;3.33;;;2.60;;
46505;SDS011;32220;49.808;9.968;2023-09-07T10:37:40;3.53;;;3.22;;
46505;SDS011;32220;49.808;9.968;2023-09-07T10:40:09;2.95;;;2.63;;
46505;SDS011;32220;49.808;9.968;2023-09-07T10:42:37;3.38;;;3.08;;
46505;SDS011;32220;49.808;9.968;2023-09-07T11:01:17;2.65;;;2.45;;
46505;SDS011;32220;49.808;9.968;2023-09-07T11:07:40;2.40;;;2.20;;
46505;SDS011;32220;49.808;9.968;2023-09-07T11:29:37;3.53;;;2.70;;
46505;SDS011;32220;49.808;9.968;2023-09-07T11:32:05;2.70;;;2.50;;
46505;SDS011;32220;49.808;9.968;2023-09-07T11:34:33;2.95;;;2.75;;
46505;SDS011;32220;49.808;9.968;2023-09-07T11:37:02;2.97;;;2.78;;
46505;SDS011;32220;49.808;9.968;2023-09-07T11:39:30;2.38;;;2.22;;
46505;SDS011;32220;49.808;9.968;2023-09-07T11:42:20;2.55;;;2.35;;
46505;SDS011;32220;49.808;9.968;2023-09-07T11:47:33;2.90;;;2.60;;
46505;SDS011;32220;49.808;9.968;2023-09-07T11:50:01;3.03;;;2.70;;
46505;SDS011;32220;49.808;9.968;2023-09-07T11:52:30;2.55;;;2.35;;
46505;SDS011;32220;49.808;9.968;2023-09-07T11:54:57;2.92;;;2.55;;
46505;SDS011;32220;49.808;9.968;2023-09-07T11:57:26;2.83;;;2.63;;
46505;SDS011;32220;49.808;9.968;2023-09-07T11:59:53;2.85;;;2.22;;
46505;SDS011;32220;49.808;9.968;2023-09-07T12:02:22;2.60;;;2.50;;
46505;SDS011;32220;49.808;9.968;2023-09-07T12:04:54;2.70;;;2.50;;
46505;SDS011;32220;49.808;9.968;2023-09-07T12:07:21;3.15;;;2.47;;
46505;SDS011;32220;49.808;9.968;2023-09-07T12:09:49;2.83;;;2.63;;
46505;SDS011;32220;49.808;9.968;2023-09-07T12:12:16;2.70;;;2.50;;
46505;SDS011;32220;49.808;9.968;2023-09-07T12:14:44;2.78;;;2.50;;
46505;SDS011;32220;49.808;9.968;2023-09-07T12:17:11;2.60;;;2.40;;
46505;SDS011;32220;49.808;9.968;2023-09-07T12:19:40;2.88;;;2.67;;
46505;SDS011;32220;49.808;9.968;2023-09-07T12:22:08;2.47;;;2.28;;
46505;SDS011;32220;49.808;9.968;2023-09-07T12:24:35;2.00;;;1.88;;
46505;SDS011;32220;49.808;9.968;2023-09-07T12:27:03;3.65;;;2.40;;
46505;SDS011;32220;49.808;9.968;2023-09-07T12:29:31;2.35;;;2.20;;
46505;SDS011;32220;49.808;9.968;2023-09-07T12:31:58;2.65;;;2.45;;
46505;SDS011;32220;49.808;9.968;2023-09-07T12:34:26;2.33;;;2.22;;
46505;SDS011;32220;49.808;9.968;2023-09-07T12:36:55;2.33;;;2.22;;
46505;SDS011;32220;49.808;9.968;2023-09-07T12:39:22;2.00;;;1.90;;
46505;SDS011;32220;49.808;9.968;2023-09-07T12:41:50;2.67;;;2.30;;
46505;SDS011;32220;49.808;9.968;2023-09-07T12:44:17;2.28;;;2.10;;
46505;SDS011;32220;49.808;9.968;2023-09-07T12:46:47;3.70;;;2.80;;
46505;SDS011;32220;49.808;9.968;2023-09-07T12:49:23;3.92;;;2.65;;
46505;SDS011;32220;49.808;9.968;2023-09-07T12:51:51;2.33;;;2.05;;
46505;SDS011;32220;49.808;9.968;2023-09-07T12:57:29;2.80;;;2.50;;
46505;SDS011;32220;49.808;9.968;2023-09-07T13:00:53;2.63;;;2.42;;
46505;SDS011;32220;49.808;9.968;2023-09-07T13:03:58;2.47;;;2.28;;
46505;SDS011;32220;49.808;9.968;2023-09-07T13:06:44;3.00;;;2.72;;
46505;SDS011;32220;49.808;9.968;2023-09-07T13:09:26;2.50;;;2.30;;
46505;SDS011;32220;49.808;9.968;2023-09-07T13:12:01;2.13;;;2.03;;
46505;SDS011;32220;49.808;9.968;2023-09-07T13:26:57;2.55;;;2.35;;
46505;SDS011;32220;49.808;9.968;2023-09-07T13:29:26;2.42;;;2.22;;
46505;SDS011;32220;49.808;9.968;2023-09-07T13:31:54;3.00;;;2.70;;
46505;SDS011;32220;49.808;9.968;2023-09-07T13:34:24;2.78;;;2.58;;
46505;SDS011;32220;49.808;9.968;2023-09-07T13:36:52;2.75;;;2.55;;
46505;SDS011;32220;49.808;9.968;2023-09-07T13:39:20;2.60;;;2.40;;
46505;SDS011;32220;49.808;9.968;2023-09-07T13:41:48;2.50;;;2.30;;
46505;SDS011;32220;49.808;9.968;2023-09-07T13:44:16;2.53;;;2.33;;
46505;SDS011;32220;49.808;9.968;2023-09-07T13:46:45;2.58;;;2.38;;
46505;SDS011;32220;49.808;9.968;2023-09-07T13:49:13;3.10;;;2.65;;
46505;SDS011;32220;49.808;9.968;2023-09-07T13:51:40;4.43;;;2.72;;
46505;SDS011;32220;49.808;9.968;2023-09-07T13:54:08;3.42;;;2.65;;
46505;SDS011;32220;49.808;9.968;2023-09-07T13:56:36;2.40;;;2.20;;
46505;SDS011;32220;49.808;9.968;2023-09-07T13:59:06;2.50;;;2.30;;
46505;SDS011;32220;49.808;9.968;2023-09-07T14:01:34;2.47;;;2.28;;
46505;SDS011;32220;49.808;9.968;2023-09-07T14:04:03;3.05;;;2.83;;
46505;SDS011;32220;49.808;9.968;2023-09-07T14:06:31;4.53;;;2.80;;
46505;SDS011;32220;49.808;9.968;2023-09-07T14:08:59;2.30;;;2.20;;
46505;SDS011;32220;49.808;9.968;2023-09-07T14:11:27;4.15;;;2.83;;
46505;SDS011;32220;49.808;9.968;2023-09-07T14:13:56;2.80;;;2.60;;
46505;SDS011;32220;49.808;9.968;2023-09-07T14:16:23;2.92;;;2.72;;
46505;SDS011;32220;49.808;9.968;2023-09-07T14:18:50;2.80;;;2.60;;
46505;SDS011;32220;49.808;9.968;2023-09-07T14:21:19;3.92;;;2.65;;
46505;SDS011;32220;49.808;9.968;2023-09-07T14:23:50;3.20;;;2.90;;
46505;SDS011;32220;49.808;9.968;2023-09-07T14:26:17;5.75;;;2.90;;
46505;SDS011;32220;49.808;9.968;2023-09-07T14:28:45;2.97;;;2.67;;
46505;SDS011;32220;49.808;9.968;2023-09-07T14:31:13;4.63;;;2.75;;
46505;SDS011;32220;49.808;9.968;2023-09-07T14:33:40;3.00;;;2.70;;
46505;SDS011;32220;49.808;9.968;2023-09-07T14:36:08;2.85;;;2.65;;
46505;SDS011;32220;49.808;9.968;2023-09-07T14:38:37;3.17;;;2.92;;
46505;SDS011;32220;49.808;9.968;2023-09-07T14:41:07;2.78;;;2.58;;
46505;SDS011;32220;49.808;9.968;2023-09-07T14:43:37;2.83;;;2.63;;
46505;SDS011;32220;49.808;9.968;2023-09-07T14:46:05;3.47;;;2.50;;
46505;SDS011;32220;49.808;9.968;2023-09-07T14:48:32;2.63;;;2.42;;
46505;SDS011;32220;49.808;9.968;2023-09-07T14:51:00;2.78;;;2.58;;
46505;SDS011;32220;49.808;9.968;2023-09-07T20:01:50;2.77;;;2.10;;
46505;SDS011;32220;49.808;9.968;2023-09-07T20:04:20;2.20;;;2.00;;
46505;SDS011;32220;49.808;9.968;2023-09-07T20:06:48;2.50;;;2.20;;
46505;SDS011;32220;49.808;9.968;2023-09-07T20:09:16;2.50;;;2.30;;
46505;SDS011;32220;49.808;9.968;2023-09-07T20:11:46;2.60;;;1.97;;
46505;SDS011;32220;49.808;9.968;2023-09-07T20:14:13;2.23;;;2.03;;
46505;SDS011;32220;49.808;9.968;2023-09-07T20:16:43;2.50;;;1.87;;
46505;SDS011;32220;49.808;9.968;2023-09-07T20:19:10;1.83;;;1.70;;
46505;SDS011;32220;49.808;9.968;2023-09-07T20:21:38;3.00;;;2.20;;
46505;SDS011;32220;49.808;9.968;2023-09-07T20:24:06;2.40;;;2.10;;
46505;SDS011;32220;49.808;9.968;2023-09-07T20:26:34;2.50;;;2.00;;
46505;SDS011;32220;49.808;9.968;2023-09-07T20:29:02;1.87;;;1.77;;
46505;SDS011;32220;49.808;9.968;2023-09-07T20:31:31;2.20;;;1.80;;
46505;SDS011;32220;49.808;9.968;2023-09-07T20:34:00;2.23;;;1.83;;
46505;SDS011;32220;49.808;9.968;2023-09-07T20:36:27;2.23;;;2.00;;
46505;SDS011;32220;49.808;9.968;2023-09-07T20:38:55;2.47;;;1.90;;
46505;SDS011;32220;49.808;9.968;2023-09-07T20:41:23;2.03;;;1.83;;
46505;SDS011;32220;49.808;9.968;2023-09-07T20:43:53;2.50;;;2.30;;
46505;SDS011;32220;49.808;9.968;2023-09-07T20:46:21;2.60;;;1.73;;
46505;SDS011;32220;49.808;9.968;2023-09-07T20:48:48;3.70;;;2.00;;
46505;SDS011;32220;49.808;9.968;2023-09-07T20:51:17;2.47;;;1.87;;
46505;SDS011;32220;49.808;9.968;2023-09-07T20:53:45;2.63;;;2.17;;
46505;SDS011;32220;49.808;9.968;2023-09-07T20:56:13;2.30;;;1.93;;
46505;SDS011;32220;49.808;9.968;2023-09-07T20:58:40;2.27;;;2.07;;
46505;SDS011;32220;49.808;9.968;2023-09-07T21:01:07;2.47;;;1.60;;
46505;SDS011;32220;49.808;9.968;2023-09-07T21:03:35;2.13;;;1.93;;
46505;SDS011;32220;49.808;9.968;2023-09-07T21:06:03;3.10;;;2.27;;
46505;SDS011;32220;49.808;9.968;2023-09-07T21:08:32;1.67;;;1.57;;
46505;SDS011;32220;49.808;9.968;2023-09-07T21:11:00;2.13;;;1.93;;
46505;SDS011;32220;49.808;9.968;2023-09-07T21:13:27;2.17;;;1.73;;
46505;SDS011;32220;49.808;9.968;2023-09-07T21:15:55;3.73;;;2.00;;
46505;SDS011;32220;49.808;9.968;2023-09-07T21:18:22;2.63;;;2.00;;
46505;SDS011;32220;49.808;9.968;2023-09-07T21:20:50;2.20;;;2.00;;
46505;SDS011;32220;49.808;9.968;2023-09-07T21:23:18;2.20;;;1.90;;
46505;SDS011;32220;49.808;9.968;2023-09-07T21:25:47;2.67;;;2.47;;
46505;SDS011;32220;49.808;9.968;2023-09-07T21:28:15;2.80;;;2.30;;
46505;SDS011;32220;49.808;9.968;2023-09-07T21:30:42;2.40;;;2.20;;
46505;SDS011;32220;49.808;9.968;2023-09-07T21:33:10;2.10;;;1.90;;
46505;SDS011;32220;49.808;9.968;2023-09-07T21:35:37;2.70;;;2.50;;
46505;SDS011;32220;49.808;9.968;2023-09-07T21:38:05;1.93;;;1.77;;
46505;SDS011;32220;49.808;9.968;2023-09-07T21:40:33;2.37;;;2.07;;
46505;SDS011;32220;49.808;9.968;2023-09-07T21:43:02;1.90;;;1.80;;
46505;SDS011;32220;49.808;9.968;2023-09-07T21:45:30;1.57;;;1.33;;
46505;SDS011;32220;49.808;9.968;2023-09-07T21:47:58;1.90;;;1.80;;
46505;SDS011;32220;49.808;9.968;2023-09-07T21:50:26;3.00;;;2.03;;
46505;SDS011;32220;49.808;9.968;2023-09-07T21:52:54;3.27;;;2.27;;
46505;SDS011;32220;49.808;9.968;2023-09-07T21:55:21;2.30;;;2.10;;
46505;SDS011;32220;49.808;9.968;2023-09-07T21:57:49;3.00;;;1.80;;
46505;SDS011;32220;49.808;9.968;2023-09-07T22:00:18;2.63;;;2.10;;
46505;SDS011;32220;49.808;9.968;2023-09-07T22:02:47;2.40;;;2.00;;
46505;SDS011;32220;49.808;9.968;2023-09-07T22:05:15;2.43;;;2.00;;
46505;SDS011;32220;49.808;9.968;2023-09-07T22:07:43;3.13;;;2.07;;
46505;SDS011;32220;49.808;9.968;2023-09-07T22:10:11;3.10;;;2.07;;
46505;SDS011;32220;49.808;9.968;2023-09-07T22:12:39;2.03;;;1.83;;
46505;SDS011;32220;49.808;9.968;2023-09-07T22:15:07;2.73;;;2.37;;
46505;SDS011;32220;49.808;9.968;2023-09-07T22:17:37;2.20;;;2.00;;
46505;SDS011;32220;49.808;9.968;2023-09-07T22:20:08;2.27;;;1.83;;
46505;SDS011;32220;49.808;9.968;2023-09-07T22:22:36;2.50;;;2.00;;
46505;SDS011;32220;49.808;9.968;2023-09-07T22:25:04;2.50;;;2.10;;
46505;SDS011;32220;49.808;9.968;2023-09-07T22:27:33;2.13;;;1.97;;
46505;SDS011;32220;49.808;9.968;2023-09-07T22:30:02;2.07;;;1.90;;
46505;SDS011;32220;49.808;9.968;2023-09-07T22:32:30;3.13;;;2.30;;
46505;SDS011;32220;49.808;9.968;2023-09-07T22:35:00;2.23;;;2.00;;
46505;SDS011;32220;49.808;9.968;2023-09-07T22:37:27;2.53;;;1.90;;
46505;SDS011;32220;49.808;9.968;2023-09-07T22:39:55;3.77;;;2.70;;
46505;SDS011;32220;49.808;9.968;2023-09-07T22:42:23;2.67;;;2.10;;
46505;SDS011;32220;49.808;9.968;2023-09-07T22:44:50;2.63;;;2.00;;
46505;SDS011;32220;49.808;9.968;2023-09-07T22:47:18;2.10;;;1.63;;
46505;SDS011;32220;49.808;9.968;2023-09-07T22:49:46;2.87;;;2.17;;
46505;SDS011;32220;49.808;9.968;2023-09-07T22:52:15;2.53;;;2.07;;
46505;SDS011;32220;49.808;9.968;2023-09-07T22:54:44;2.83;;;2.20;;
46505;SDS011;32220;49.808;9.968;2023-09-07T22:57:11;2.67;;;1.97;;
